Time;durP1;ratioP1;P1;durP2;ratioP2;P2;SDS_P1;SDS_P2;PMS_P1;PMS_P2;Temp;Humidity;BMP_temperature;BMP_pressure;BME280_temperature;BME280_humidity;BME280_pressure;Samples;Min_cycle;Max_cycle;Signal;HPM_P1;HPM_P2
2021/03/05 00:00:09;;;;;;;15.25;10.38;;;7.50;99.90;;;;;;5013427;28;20026;-72
2021/03/05 00:02:35;;;;;;;18.23;11.23;;;7.60;99.90;;;;;;5013678;28;20029;-71
2021/03/05 00:05:01;;;;;;;16.50;9.95;;;7.50;99.90;;;;;;5012948;28;20038;-72
2021/03/05 00:07:26;;;;;;;14.52;10.23;;;7.50;99.90;;;;;;5013285;28;20502;-71
2021/03/05 00:09:52;;;;;;;17.67;10.88;;;7.50;99.90;;;;;;5012468;28;20021;-72
2021/03/05 00:12:18;;;;;;;16.52;10.73;;;7.60;99.90;;;;;;5013062;28;20393;-69
2021/03/05 00:14:44;;;;;;;14.40;10.93;;;7.60;99.90;;;;;;5011870;28;20026;-70
2021/03/05 00:17:10;;;;;;;16.92;11.55;;;7.60;99.90;;;;;;5013531;28;20030;-69
2021/03/05 00:19:36;;;;;;;16.10;11.13;;;7.60;99.90;;;;;;5010979;28;20109;-70
2021/03/05 00:22:03;;;;;;;13.93;9.73;;;7.60;99.90;;;;;;5013473;28;20081;-71
2021/03/05 00:24:29;;;;;;;14.75;10.70;;;7.60;99.90;;;;;;5003908;28;20499;-71
2021/03/05 00:26:54;;;;;;;18.02;11.15;;;7.60;99.90;;;;;;4993286;28;20567;-71
2021/03/05 00:29:20;;;;;;;12.43;10.23;;;7.50;99.90;;;;;;4993219;28;20037;-71
2021/03/05 00:31:46;;;;;;;14.82;11.30;;;7.60;99.90;;;;;;4993435;28;20555;-71
2021/03/05 00:34:11;;;;;;;14.55;10.43;;;7.50;99.90;;;;;;4991188;28;20109;-71
2021/03/05 00:36:37;;;;;;;16.13;11.32;;;7.50;99.90;;;;;;4993041;28;20035;-71
2021/03/05 00:39:04;;;;;;;17.73;11.55;;;7.50;99.90;;;;;;4993585;28;20018;-72
2021/03/05 00:41:29;;;;;;;19.00;11.95;;;7.60;99.90;;;;;;4993295;28;20061;-70
2021/03/05 00:43:55;;;;;;;14.88;11.35;;;7.50;99.90;;;;;;4991893;28;20053;-71
2021/03/05 00:46:21;;;;;;;15.38;10.93;;;7.60;99.90;;;;;;4992618;28;20037;-71
2021/03/05 00:48:46;;;;;;;18.75;10.95;;;7.60;99.90;;;;;;4991497;28;20027;-70
2021/03/05 00:51:12;;;;;;;16.17;11.15;;;7.50;99.90;;;;;;4992547;28;20014;-70
2021/03/05 00:53:38;;;;;;;14.98;10.85;;;7.60;99.90;;;;;;4992097;28;20050;-71
2021/03/05 00:56:04;;;;;;;16.83;11.32;;;7.60;99.90;;;;;;4992606;28;20026;-70
2021/03/05 00:58:29;;;;;;;15.20;11.60;;;7.60;99.90;;;;;;4992633;28;20030;-71
2021/03/05 01:00:55;;;;;;;17.02;12.15;;;7.50;99.90;;;;;;4992575;28;20034;-69
2021/03/05 01:03:21;;;;;;;19.92;12.15;;;7.50;99.90;;;;;;4992159;28;20401;-69
2021/03/05 01:05:46;;;;;;;19.23;11.50;;;7.60;99.90;;;;;;4991205;28;20030;-69
2021/03/05 01:08:12;;;;;;;15.82;11.60;;;7.50;99.90;;;;;;4992809;28;20019;-70
2021/03/05 01:10:38;;;;;;;14.75;12.05;;;7.50;99.90;;;;;;4992811;28;20023;-71
2021/03/05 01:13:04;;;;;;;18.63;11.95;;;7.50;99.90;;;;;;4992343;28;20022;-70
2021/03/05 01:15:30;;;;;;;16.92;11.90;;;7.60;99.90;;;;;;4992388;28;20072;-71
2021/03/05 01:17:55;;;;;;;18.30;11.70;;;7.70;99.90;;;;;;4992744;28;20101;-72
2021/03/05 01:20:23;;;;;;;17.05;11.82;;;7.70;99.90;;;;;;4992429;28;20034;-71
2021/03/05 01:22:49;;;;;;;16.92;11.63;;;7.70;99.90;;;;;;4992028;28;20030;-71
2021/03/05 01:25:19;;;;;;;16.63;11.52;;;7.60;99.90;;;;;;4992575;28;20668;-70
2021/03/05 01:27:45;;;;;;;19.08;14.68;;;7.60;99.90;;;;;;4992326;28;20117;-70
2021/03/05 01:30:12;;;;;;;22.90;17.45;;;7.50;99.90;;;;;;4992527;28;20520;-70
2021/03/05 01:32:38;;;;;;;20.13;16.08;;;7.40;99.90;;;;;;4992094;28;20117;-70
2021/03/05 01:35:17;;;;;;;23.42;15.32;;;7.20;99.90;;;;;;5004910;28;20121;-70
2021/03/05 01:37:44;;;;;;;25.40;17.55;;;7.00;99.90;;;;;;5012156;28;20032;-71
2021/03/05 01:40:13;;;;;;;23.33;16.88;;;6.90;99.90;;;;;;5012296;28;20393;-71
2021/03/05 01:42:40;;;;;;;24.42;17.50;;;6.60;99.90;;;;;;5011748;28;20018;-69
2021/03/05 01:45:15;;;;;;;23.20;17.13;;;6.50;99.90;;;;;;5011919;28;20108;-72
2021/03/05 01:47:46;;;;;;;24.88;17.88;;;6.50;99.90;;;;;;5012884;28;20033;-72
2021/03/05 01:50:15;;;;;;;28.55;19.30;;;6.30;99.90;;;;;;5010392;28;20358;-72
2021/03/05 01:52:48;;;;;;;24.08;17.27;;;6.10;99.90;;;;;;5012319;28;20028;-71
2021/03/05 01:55:14;;;;;;;24.98;18.17;;;6.00;99.90;;;;;;5013563;28;20033;-71
2021/03/05 01:57:41;;;;;;;26.58;18.42;;;6.00;99.90;;;;;;5016975;28;20022;-71
2021/03/05 02:00:09;;;;;;;28.65;19.55;;;5.90;99.90;;;;;;5016813;28;20036;-71
2021/03/05 02:02:35;;;;;;;28.20;18.27;;;5.70;99.90;;;;;;5016831;28;20041;-71
2021/03/05 02:05:00;;;;;;;26.15;18.38;;;5.70;99.90;;;;;;5015393;28;20101;-72
2021/03/05 02:07:26;;;;;;;31.10;20.48;;;5.50;99.90;;;;;;5016056;28;20041;-71
2021/03/05 02:09:52;;;;;;;33.03;21.48;;;5.50;99.90;;;;;;5016761;28;20442;-71
2021/03/05 02:12:17;;;;;;;34.20;21.67;;;5.40;99.90;;;;;;5015195;28;20033;-71
2021/03/05 02:14:43;;;;;;;34.33;21.65;;;5.50;99.90;;;;;;5019398;28;20026;-72
2021/03/05 02:17:23;;;;;;;32.88;21.67;;;5.50;99.90;;;;;;5025917;28;20029;-72
2021/03/05 02:20:12;;;;;;;34.58;22.35;;;5.40;99.90;;;;;;5023375;28;20493;-70
2021/03/05 02:23:11;;;;;;;33.13;20.60;;;5.40;99.90;;;;;;5002016;28;20481;-71
2021/03/05 02:25:40;;;;;;;36.83;22.17;;;5.50;99.90;;;;;;4997689;28;20042;-71
2021/03/05 02:28:21;;;;;;;34.47;21.50;;;5.40;99.90;;;;;;5004551;28;20034;-72
2021/03/05 02:31:04;;;;;;;36.20;21.60;;;5.40;99.90;;;;;;5003713;28;20026;-71
2021/03/05 02:33:48;;;;;;;32.63;20.48;;;5.30;99.90;;;;;;4994937;28;20347;-72
2021/03/05 02:36:19;;;;;;;30.70;20.52;;;5.30;99.90;;;;;;4995819;28;20484;-71
2021/03/05 02:38:58;;;;;;;34.42;21.77;;;5.20;99.90;;;;;;4996169;28;20068;-71
2021/03/05 02:41:26;;;;;;;29.33;20.08;;;5.20;99.90;;;;;;4996584;28;20044;-72
2021/03/05 02:43:54;;;;;;;30.90;19.75;;;5.30;99.90;;;;;;4995212;28;20429;-72
2021/03/05 02:46:21;;;;;;;33.10;20.67;;;5.30;99.90;;;;;;4995629;28;20022;-72
2021/03/05 02:48:47;;;;;;;30.65;20.15;;;5.20;99.90;;;;;;5001821;28;20021;-72
2021/03/05 02:51:16;;;;;;;31.40;20.92;;;5.20;99.90;;;;;;5014241;28;20030;-71
2021/03/05 02:53:44;;;;;;;35.75;22.30;;;5.10;99.90;;;;;;5013807;28;20101;-72
2021/03/05 02:56:14;;;;;;;36.90;22.55;;;5.10;99.90;;;;;;5015043;28;20022;-72
2021/03/05 02:58:48;;;;;;;36.10;22.40;;;5.00;99.90;;;;;;5014751;28;20034;-72
2021/03/05 03:01:16;;;;;;;35.95;22.58;;;5.00;99.90;;;;;;5014536;28;20022;-72
2021/03/05 03:03:43;;;;;;;38.63;22.35;;;5.00;99.90;;;;;;5013831;28;20419;-71
2021/03/05 03:06:14;;;;;;;35.35;22.27;;;4.90;99.90;;;;;;5013750;28;20467;-72
2021/03/05 03:08:40;;;;;;;40.10;23.08;;;4.90;99.90;;;;;;5014428;28;20026;-72
2021/03/05 03:11:06;;;;;;;40.30;22.52;;;5.00;99.90;;;;;;5014348;28;20029;-71
2021/03/05 03:13:34;;;;;;;37.63;22.42;;;4.90;99.90;;;;;;5013596;28;20028;-70
2021/03/05 03:16:01;;;;;;;34.95;21.55;;;4.90;99.90;;;;;;5013890;28;20504;-71
2021/03/05 03:18:27;;;;;;;35.50;21.95;;;4.90;99.90;;;;;;5012847;28;20180;-71
2021/03/05 03:20:58;;;;;;;37.65;21.77;;;4.90;99.90;;;;;;5014022;28;20058;-71
2021/03/05 03:23:24;;;;;;;35.92;21.23;;;4.90;99.90;;;;;;5013423;28;20396;-70
2021/03/05 03:25:51;;;;;;;40.05;21.88;;;4.90;99.90;;;;;;5017474;28;20034;-70
2021/03/05 03:28:17;;;;;;;36.55;20.75;;;4.90;99.90;;;;;;5033648;28;20034;-73
2021/03/05 03:30:43;;;;;;;36.92;20.63;;;4.90;99.90;;;;;;5032723;28;20029;-71
2021/03/05 03:33:09;;;;;;;35.20;19.67;;;4.90;99.90;;;;;;5033023;28;20032;-72
2021/03/05 03:35:35;;;;;;;27.50;17.50;;;5.00;99.90;;;;;;5032869;28;20090;-74
2021/03/05 03:38:02;;;;;;;28.13;17.05;;;5.00;99.90;;;;;;5025726;28;20026;-73
2021/03/05 03:40:29;;;;;;;26.33;16.90;;;4.90;99.90;;;;;;5014499;28;20029;-72
2021/03/05 03:42:54;;;;;;;27.35;16.27;;;4.70;99.90;;;;;;5013287;28;20077;-70
2021/03/05 03:45:22;;;;;;;25.88;16.70;;;4.60;99.90;;;;;;5013405;28;20563;-73
2021/03/05 03:47:49;;;;;;;27.23;16.83;;;4.60;99.90;;;;;;5013591;28;20026;-71
2021/03/05 03:50:20;;;;;;;34.67;19.98;;;4.60;99.90;;;;;;5013319;28;20484;-71
2021/03/05 03:52:51;;;;;;;36.17;21.08;;;4.60;99.90;;;;;;5012839;28;20105;-70
2021/03/05 03:55:17;;;;;;;34.45;20.48;;;4.60;99.90;;;;;;5012104;28;20033;-71
2021/03/05 03:57:45;;;;;;;32.53;20.77;;;4.60;99.90;;;;;;5013396;28;20034;-72
2021/03/05 04:00:13;;;;;;;35.13;22.25;;;4.60;99.90;;;;;;5013439;28;20038;-71
2021/03/05 04:02:40;;;;;;;35.72;22.30;;;4.60;99.90;;;;;;5012720;28;20022;-72
2021/03/05 04:05:14;;;;;;;37.10;21.42;;;4.60;99.90;;;;;;5012905;28;20041;-72
2021/03/05 04:07:42;;;;;;;35.13;21.15;;;4.60;99.90;;;;;;5013158;28;20022;-70
2021/03/05 04:10:10;;;;;;;37.20;21.23;;;4.50;99.90;;;;;;5013310;28;20026;-72
2021/03/05 04:12:37;;;;;;;33.17;20.02;;;4.50;99.90;;;;;;5013064;28;20493;-70
2021/03/05 04:15:03;;;;;;;32.63;20.75;;;4.60;99.90;;;;;;5011306;28;20040;-70
2021/03/05 04:17:29;;;;;;;36.50;21.63;;;4.60;99.90;;;;;;5011242;28;20445;-73
2021/03/05 04:19:55;;;;;;;29.50;19.15;;;4.60;99.90;;;;;;5012558;28;20501;-72
2021/03/05 04:22:22;;;;;;;31.75;20.15;;;4.50;99.90;;;;;;5011582;28;20096;-72
2021/03/05 04:24:49;;;;;;;32.55;20.38;;;4.50;99.90;;;;;;5012418;28;20026;-70
2021/03/05 04:27:14;;;;;;;31.92;19.70;;;4.50;99.90;;;;;;5012832;28;20056;-71
2021/03/05 04:29:40;;;;;;;33.00;19.80;;;4.60;99.90;;;;;;5011863;28;20053;-72
2021/03/05 04:32:06;;;;;;;34.47;20.85;;;4.50;99.90;;;;;;5012899;28;20018;-71
2021/03/05 04:34:32;;;;;;;35.15;22.08;;;4.50;99.90;;;;;;5012351;28;20030;-70
2021/03/05 04:36:58;;;;;;;32.80;20.20;;;4.40;99.90;;;;;;5012754;28;20036;-69
2021/03/05 04:39:23;;;;;;;32.95;20.10;;;4.40;99.90;;;;;;5011381;28;20025;-71
2021/03/05 04:41:49;;;;;;;32.97;20.63;;;4.50;99.90;;;;;;5012669;28;20120;-70
2021/03/05 04:44:15;;;;;;;32.10;20.25;;;4.50;99.90;;;;;;5012254;28;20021;-71
2021/03/05 04:46:41;;;;;;;33.40;20.90;;;4.60;99.90;;;;;;5013015;28;20457;-71
2021/03/05 04:49:07;;;;;;;36.20;22.45;;;4.40;99.90;;;;;;5013267;28;20030;-71
2021/03/05 04:51:32;;;;;;;32.50;21.10;;;4.50;99.90;;;;;;5012805;28;20511;-72
2021/03/05 04:53:58;;;;;;;32.28;19.33;;;4.40;99.90;;;;;;5011754;28;20022;-71
2021/03/05 04:56:24;;;;;;;32.97;20.35;;;4.50;99.90;;;;;;5013199;28;20038;-70
2021/03/05 04:58:50;;;;;;;33.85;21.35;;;4.50;99.90;;;;;;5013178;28;20030;-70
2021/03/05 05:01:15;;;;;;;27.60;18.13;;;4.60;99.90;;;;;;5013023;28;20037;-70
2021/03/05 05:03:41;;;;;;;31.02;17.27;;;4.60;99.90;;;;;;5011912;28;20080;-72
2021/03/05 05:06:07;;;;;;;28.05;16.88;;;4.50;99.90;;;;;;5011921;28;20031;-70
2021/03/05 05:08:33;;;;;;;27.65;17.77;;;4.50;99.90;;;;;;5012084;28;20034;-70
2021/03/05 05:10:59;;;;;;;27.67;17.20;;;4.40;99.90;;;;;;5012214;28;20787;-69
2021/03/05 05:13:24;;;;;;;22.98;15.30;;;4.30;99.90;;;;;;5011611;28;20029;-71
2021/03/05 05:15:50;;;;;;;22.42;15.98;;;4.40;99.90;;;;;;5012002;28;20033;-69
2021/03/05 05:18:16;;;;;;;21.33;14.98;;;4.30;99.90;;;;;;5014282;28;20372;-70
2021/03/05 05:20:42;;;;;;;20.67;14.27;;;4.40;99.90;;;;;;5014710;28;20161;-70
2021/03/05 05:23:08;;;;;;;19.98;14.20;;;4.40;99.90;;;;;;5014695;28;20057;-70
2021/03/05 05:25:34;;;;;;;19.45;13.50;;;4.40;99.90;;;;;;5015772;28;20029;-71
2021/03/05 05:27:59;;;;;;;20.95;14.48;;;4.40;99.90;;;;;;5013346;28;20033;-70
2021/03/05 05:30:25;;;;;;;19.98;13.40;;;4.40;99.90;;;;;;5011930;28;20488;-72
2021/03/05 05:32:51;;;;;;;21.42;14.38;;;4.40;99.90;;;;;;5011432;28;20459;-71
2021/03/05 05:35:17;;;;;;;21.65;14.80;;;4.40;99.90;;;;;;5011585;28;20029;-70
2021/03/05 05:37:42;;;;;;;23.27;15.93;;;4.30;99.90;;;;;;5011999;28;20029;-68
2021/03/05 05:40:09;;;;;;;21.92;15.15;;;4.30;99.90;;;;;;5011977;28;20029;-71
2021/03/05 05:42:34;;;;;;;25.95;18.13;;;4.20;99.90;;;;;;4996782;28;20109;-69
2021/03/05 05:45:00;;;;;;;26.27;17.50;;;4.20;99.90;;;;;;4990408;28;20465;-71
2021/03/05 05:47:29;;;;;;;27.80;18.13;;;4.20;99.90;;;;;;4991314;28;20026;-71
2021/03/05 05:50:01;;;;;;;25.02;16.83;;;4.20;99.90;;;;;;5004717;28;20076;-70
2021/03/05 05:52:30;;;;;;;28.80;19.73;;;4.20;99.90;;;;;;5011195;28;20460;-69
2021/03/05 05:54:56;;;;;;;29.23;19.23;;;4.20;99.90;;;;;;5010250;28;20022;-71
2021/03/05 05:57:23;;;;;;;28.45;19.08;;;4.20;99.90;;;;;;5012060;28;20076;-70
2021/03/05 05:59:49;;;;;;;29.27;19.00;;;4.20;99.90;;;;;;5010973;28;20030;-71
2021/03/05 06:02:16;;;;;;;29.48;17.88;;;4.20;99.90;;;;;;4992476;28;20030;-70
2021/03/05 06:04:44;;;;;;;26.73;18.50;;;4.20;99.90;;;;;;4990570;28;20035;-72
2021/03/05 06:07:10;;;;;;;26.23;18.95;;;4.40;99.90;;;;;;4992091;28;20030;-69
2021/03/05 06:09:36;;;;;;;27.25;17.92;;;4.30;99.90;;;;;;4991970;28;20489;-71
2021/03/05 06:12:11;;;;;;;30.20;19.23;;;4.30;99.90;;;;;;4991884;28;20098;-70
2021/03/05 06:14:42;;;;;;;29.13;19.13;;;4.30;99.90;;;;;;4990347;28;20033;-71
2021/03/05 06:17:08;;;;;;;33.85;21.17;;;4.20;99.90;;;;;;4991772;28;20485;-69
2021/03/05 06:19:34;;;;;;;30.73;19.95;;;4.30;99.90;;;;;;5002723;28;20088;-67
2021/03/05 06:22:00;;;;;;;31.98;21.13;;;4.30;99.90;;;;;;5011633;28;20036;-70
2021/03/05 06:24:27;;;;;;;32.95;20.73;;;4.40;99.90;;;;;;5009776;28;20026;-69
2021/03/05 06:26:59;;;;;;;30.45;19.10;;;4.60;99.90;;;;;;5011380;28;20388;-69
2021/03/05 06:29:25;;;;;;;;;;;5.20;99.90;;;;;;5012724;28;20033;-71
2021/03/05 06:31:53;;;;;;;26.63;16.98;;;5.10;99.90;;;;;;5011505;28;19910;-71
2021/03/05 06:34:18;;;;;;;27.20;18.35;;;5.00;99.90;;;;;;5008860;28;20033;-72
2021/03/05 06:36:55;;;;;;;29.55;17.90;;;4.80;99.90;;;;;;5005440;28;20023;-72
2021/03/05 06:39:24;;;;;;;25.30;16.90;;;4.90;99.90;;;;;;4997219;28;20022;-71
2021/03/05 06:42:07;;;;;;;25.35;16.05;;;4.80;99.90;;;;;;5013083;28;20037;-74
2021/03/05 06:44:37;;;;;;;25.35;16.60;;;4.80;99.90;;;;;;5014274;28;20018;-72
2021/03/05 06:47:27;;;;;;;24.05;16.17;;;4.60;99.90;;;;;;5021620;28;20036;-72
2021/03/05 06:49:52;;;;;;;28.75;16.80;;;4.40;99.90;;;;;;5032167;28;20025;-71
2021/03/05 06:52:32;;;;;;;28.60;16.25;;;4.30;99.90;;;;;;5033229;28;20018;-73
2021/03/05 06:55:01;;;;;;;22.10;14.73;;;4.30;99.90;;;;;;5024347;28;20454;-73
2021/03/05 06:57:27;;;;;;;22.95;15.63;;;4.30;99.90;;;;;;5013693;28;20125;-72
2021/03/05 06:59:53;;;;;;;26.55;16.13;;;4.30;99.90;;;;;;5024076;28;20036;-73
2021/03/05 07:02:30;;;;;;;23.48;15.38;;;4.30;99.90;;;;;;5033639;28;20033;-72
2021/03/05 07:04:55;;;;;;;26.15;15.75;;;4.40;99.90;;;;;;5019401;28;20080;-72
2021/03/05 07:07:22;;;;;;;25.63;16.63;;;4.40;99.90;;;;;;5014214;28;20042;-72
2021/03/05 07:09:51;;;;;;;28.63;15.63;;;4.30;99.90;;;;;;5015115;28;20024;-72
2021/03/05 07:12:22;;;;;;;28.20;15.43;;;4.30;99.90;;;;;;5014248;28;20022;-70
2021/03/05 07:14:58;;;;;;;25.70;15.60;;;4.30;99.90;;;;;;5013141;28;20084;-71
2021/03/05 07:17:24;;;;;;;25.45;16.27;;;4.40;99.90;;;;;;4998764;28;20026;-74
2021/03/05 07:19:50;;;;;;;25.27;15.95;;;4.40;99.90;;;;;;4986867;28;20113;-73
2021/03/05 07:22:17;;;;;;;24.80;14.50;;;4.30;99.90;;;;;;4976489;28;20126;-73
2021/03/05 07:24:48;;;;;;;24.02;14.73;;;4.30;99.90;;;;;;4983875;28;20073;-75
2021/03/05 07:27:15;;;;;;;25.40;15.30;;;4.20;99.90;;;;;;4977190;28;20018;-74
2021/03/05 07:29:45;;;;;;;26.08;15.70;;;4.20;99.90;;;;;;4996217;28;20490;-73
2021/03/05 07:32:21;;;;;;;26.02;16.40;;;4.10;99.90;;;;;;4992646;28;20147;-73
2021/03/05 07:35:00;;;;;;;25.77;15.05;;;4.10;99.90;;;;;;4993255;28;20110;-72
2021/03/05 07:37:31;;;;;;;25.00;15.40;;;4.20;99.90;;;;;;4993524;28;20084;-73
2021/03/05 07:40:02;;;;;;;26.30;15.75;;;4.30;99.90;;;;;;4993770;28;20022;-74
2021/03/05 07:42:29;;;;;;;25.27;14.93;;;4.40;99.90;;;;;;4993859;28;20473;-74
2021/03/05 07:44:56;;;;;;;25.60;14.95;;;4.40;99.90;;;;;;4993142;28;20125;-72
2021/03/05 07:47:25;;;;;;;25.88;15.38;;;4.30;99.90;;;;;;4993421;28;20105;-72
2021/03/05 07:49:57;;;;;;;26.88;15.90;;;4.30;99.90;;;;;;5005203;28;20021;-75
2021/03/05 07:52:23;;;;;;;26.20;16.65;;;4.40;99.90;;;;;;5011367;28;20024;-75
2021/03/05 07:54:49;;;;;;;24.52;15.30;;;4.40;99.90;;;;;;5011479;28;20030;-75
2021/03/05 07:57:18;;;;;;;23.70;14.75;;;4.40;99.90;;;;;;5013103;28;20054;-75
2021/03/05 07:59:44;;;;;;;26.27;15.20;;;4.50;99.90;;;;;;5013426;28;20491;-71
2021/03/05 08:02:11;;;;;;;22.20;14.65;;;4.50;99.90;;;;;;5013460;28;20029;-73
2021/03/05 08:05:04;;;;;;;24.05;15.55;;;4.40;99.90;;;;;;5011506;28;20056;-72
2021/03/05 08:07:36;;;;;;;26.20;15.55;;;4.50;99.90;;;;;;5012464;28;20080;-71
2021/03/05 08:10:01;;;;;;;23.85;15.45;;;4.50;99.90;;;;;;5012547;28;20473;-71
2021/03/05 08:12:37;;;;;;;27.70;15.68;;;4.50;99.90;;;;;;5012983;28;20073;-72
2021/03/05 08:15:12;;;;;;;23.10;13.82;;;4.70;99.90;;;;;;5012892;28;20608;-71
2021/03/05 08:17:44;;;;;;;27.63;16.58;;;4.80;99.90;;;;;;5012768;28;20026;-73
2021/03/05 08:20:35;;;;;;;21.63;13.98;;;4.80;99.90;;;;;;5011951;28;20511;-73
2021/03/05 08:23:02;;;;;;;23.00;14.45;;;5.00;99.90;;;;;;4998137;28;20026;-71
2021/03/05 08:25:38;;;;;;;24.27;14.32;;;5.00;99.90;;;;;;5008584;28;20117;-73
2021/03/05 08:28:05;;;;;;;21.05;13.65;;;5.00;99.90;;;;;;5012125;28;20018;-73
2021/03/05 08:30:33;;;;;;;24.92;15.13;;;5.10;99.90;;;;;;5011762;28;20412;-72
2021/03/05 08:33:00;;;;;;;23.63;14.73;;;5.20;99.90;;;;;;5011665;28;20057;-72
2021/03/05 08:35:28;;;;;;;23.27;14.30;;;5.30;99.90;;;;;;5002066;28;20038;-73
2021/03/05 08:38:00;;;;;;;22.65;14.25;;;5.20;99.90;;;;;;4991965;28;20026;-73
2021/03/05 08:40:29;;;;;;;29.48;14.52;;;5.30;99.90;;;;;;4997116;28;20033;-72
2021/03/05 08:42:59;;;;;;;29.10;15.88;;;5.30;99.90;;;;;;4994367;28;20022;-75
2021/03/05 08:45:31;;;;;;;24.25;14.85;;;5.30;99.90;;;;;;4991166;28;20024;-72
2021/03/05 08:47:59;;;;;;;23.38;14.65;;;5.50;99.90;;;;;;4990911;28;20515;-72
2021/03/05 08:50:33;;;;;;;20.17;13.50;;;5.40;99.90;;;;;;4991764;28;20030;-74
2021/03/05 08:53:01;;;;;;;22.73;15.25;;;5.50;99.90;;;;;;4993042;28;20394;-73
2021/03/05 08:55:31;;;;;;;25.02;13.82;;;5.40;99.90;;;;;;5012472;28;20388;-73
2021/03/05 08:57:57;;;;;;;23.23;14.50;;;5.50;99.90;;;;;;5012331;28;20032;-72
2021/03/05 09:00:30;;;;;;;25.75;13.27;;;5.70;99.90;;;;;;5013733;28;20105;-73
2021/03/05 09:03:16;;;;;;;21.02;14.07;;;5.60;99.90;;;;;;5012129;28;20030;-70
2021/03/05 09:05:50;;;;;;;24.05;14.05;;;5.80;99.90;;;;;;5000819;28;20073;-72
2021/03/05 09:08:21;;;;;;;22.73;14.82;;;5.80;99.90;;;;;;4992299;28;20389;-71
2021/03/05 09:10:54;;;;;;;28.38;17.45;;;5.70;99.90;;;;;;4992864;28;20023;-73
2021/03/05 09:13:21;;;;;;;29.63;16.45;;;5.70;99.90;;;;;;4992135;28;20504;-72
2021/03/05 09:15:54;;;;;;;23.60;16.63;;;5.70;99.90;;;;;;4992124;28;20030;-73
2021/03/05 09:18:20;;;;;;;;;;;5.70;99.90;;;;;;4992797;28;20030;-71
2021/03/05 09:20:48;;;;;;;21.73;12.75;;;5.80;99.90;;;;;;5010089;28;19906;-72
2021/03/05 09:23:36;;;;;;;19.92;13.43;;;5.60;99.90;;;;;;5004647;28;20026;-72
2021/03/05 09:26:09;;;;;;;32.00;21.60;;;5.70;99.90;;;;;;4993945;28;20492;-72
2021/03/05 09:28:49;;;;;;;28.27;17.88;;;5.80;99.90;;;;;;4990833;28;20034;-72
2021/03/05 09:31:25;;;;;;;30.90;20.45;;;6.00;99.90;;;;;;4993114;28;20030;-72
2021/03/05 09:33:51;;;;;;;24.52;15.27;;;6.00;99.90;;;;;;4988163;28;20022;-73
2021/03/05 09:36:19;;;;;;;25.13;15.20;;;6.10;99.90;;;;;;4998028;28;20022;-72
2021/03/05 09:38:57;;;;;;;21.95;14.93;;;6.20;99.90;;;;;;5005029;28;20053;-73
2021/03/05 09:41:25;;;;;;;21.90;14.15;;;6.30;99.90;;;;;;4998803;28;20061;-73
2021/03/05 09:44:10;;;;;;;20.02;13.00;;;6.50;99.90;;;;;;4996253;28;20027;-73
2021/03/05 09:46:37;;;;;;;19.50;13.45;;;6.50;99.90;;;;;;4992402;28;20030;-71
2021/03/05 09:49:23;;;;;;;21.10;13.43;;;6.40;99.90;;;;;;4995422;28;20018;-72
2021/03/05 09:51:49;;;;;;;21.75;13.68;;;6.30;99.90;;;;;;5010551;28;20037;-74
2021/03/05 09:54:17;;;;;;;20.58;13.45;;;6.20;99.90;;;;;;5003839;28;20023;-73
2021/03/05 09:56:45;;;;;;;22.08;13.65;;;6.10;99.90;;;;;;4993676;28;20167;-73
2021/03/05 09:59:12;;;;;;;20.48;13.63;;;6.30;99.90;;;;;;4990669;28;20117;-73
2021/03/05 10:01:40;;;;;;;18.00;12.52;;;6.50;99.90;;;;;;4992498;28;20054;-73
2021/03/05 10:04:08;;;;;;;17.25;12.15;;;6.40;99.90;;;;;;4989773;28;20101;-73
2021/03/05 10:06:34;;;;;;;18.85;12.52;;;6.50;99.90;;;;;;4994300;28;20026;-72
2021/03/05 10:09:03;;;;;;;19.75;13.35;;;6.40;99.90;;;;;;4992346;28;20033;-74
2021/03/05 10:11:37;;;;;;;18.52;12.60;;;6.40;99.90;;;;;;4993416;28;20049;-75
2021/03/05 10:14:05;;;;;;;18.92;12.35;;;6.60;99.90;;;;;;4992608;28;20023;-74
2021/03/05 10:16:36;;;;;;;25.15;13.05;;;6.80;99.90;;;;;;4993340;28;20041;-71
2021/03/05 10:19:23;;;;;;;20.75;12.63;;;6.90;99.90;;;;;;4999877;28;20029;-72
2021/03/05 10:21:53;;;;;;;20.70;12.40;;;7.00;99.90;;;;;;5015134;28;20030;-72
2021/03/05 10:24:29;;;;;;;17.30;11.23;;;7.20;99.90;;;;;;4975233;28;20386;-71
2021/03/05 10:27:11;;;;;;;17.65;11.63;;;7.10;99.90;;;;;;4975877;28;20030;-73
2021/03/05 10:29:45;;;;;;;14.63;10.40;;;7.00;99.90;;;;;;4975773;28;20026;-73
2021/03/05 10:32:37;;;;;;;20.85;12.15;;;7.00;99.90;;;;;;4976214;28;20043;-74
2021/03/05 10:35:10;;;;;;;20.20;12.13;;;7.20;99.90;;;;;;4975569;28;20038;-75
2021/03/05 10:37:36;;;;;;;;;;;7.10;99.90;;;;;;4976801;28;20780;-72
2021/03/05 10:40:04;;;;;;;17.08;10.63;;;7.00;99.90;;;;;;4975512;28;20328;-71
2021/03/05 10:42:30;;;;;;;18.98;10.50;;;6.80;99.90;;;;;;4975815;28;20030;-75
2021/03/05 10:44:55;;;;;;;15.40;11.15;;;6.80;99.90;;;;;;4973819;28;20045;-74
2021/03/05 10:47:22;;;;;;;16.27;10.63;;;6.80;99.90;;;;;;4975806;28;20039;-71
2021/03/05 10:49:49;;;;;;;16.13;11.05;;;6.70;99.90;;;;;;4995419;28;20030;-70
2021/03/05 10:52:22;;;;;;;15.90;10.85;;;6.80;99.90;;;;;;5014761;28;20041;-72
2021/03/05 10:54:48;;;;;;;15.68;10.77;;;6.80;99.90;;;;;;5014093;28;20045;-73
2021/03/05 10:57:16;;;;;;;15.35;10.60;;;6.70;99.90;;;;;;5015035;28;20108;-72
2021/03/05 10:59:43;;;;;;;18.52;11.10;;;6.70;99.90;;;;;;5004062;28;20536;-72
2021/03/05 11:02:09;;;;;;;17.45;11.02;;;6.60;99.90;;;;;;4999911;28;20346;-73
2021/03/05 11:04:34;;;;;;;18.77;11.00;;;6.80;99.90;;;;;;4999377;28;20026;-74
2021/03/05 11:07:02;;;;;;;19.83;11.10;;;6.80;99.90;;;;;;5000708;28;20030;-71
2021/03/05 11:09:28;;;;;;;17.08;11.05;;;6.80;99.90;;;;;;4999784;28;20018;-71
2021/03/05 11:11:54;;;;;;;20.65;11.13;;;7.00;99.90;;;;;;4995044;28;20057;-68
2021/03/05 11:14:21;;;;;;;15.27;10.38;;;7.20;99.90;;;;;;4997278;28;20511;-71
2021/03/05 11:16:47;;;;;;;18.58;11.50;;;7.80;99.90;;;;;;5005923;28;20026;-73
2021/03/05 11:19:13;;;;;;;16.70;10.93;;;7.60;99.90;;;;;;5011531;28;20081;-74
2021/03/05 11:21:39;;;;;;;17.50;11.55;;;7.20;99.90;;;;;;5028732;28;20026;-72
2021/03/05 11:24:07;;;;;;;18.20;11.43;;;6.80;99.90;;;;;;5027897;28;20037;-71
2021/03/05 11:26:34;;;;;;;20.20;11.55;;;6.40;99.90;;;;;;5021389;28;20072;-72
2021/03/05 11:28:59;;;;;;;21.58;12.27;;;6.20;99.90;;;;;;5010166;28;20019;-72
2021/03/05 11:31:25;;;;;;;19.55;11.95;;;6.20;99.90;;;;;;5022211;28;20018;-73
2021/03/05 11:33:51;;;;;;;17.27;11.32;;;6.00;99.90;;;;;;5011490;28;20024;-72
2021/03/05 11:36:20;;;;;;;19.40;11.70;;;6.20;99.90;;;;;;5003588;28;20029;-72
2021/03/05 11:38:47;;;;;;;19.30;11.93;;;6.20;99.90;;;;;;5019733;28;20056;-72
2021/03/05 11:41:13;;;;;;;19.95;12.35;;;6.20;99.90;;;;;;5024410;28;20057;-72
2021/03/05 11:43:59;;;;;;;18.05;11.40;;;6.20;99.90;;;;;;5005328;28;20023;-72
2021/03/05 11:46:25;;;;;;;21.40;12.38;;;6.10;99.90;;;;;;5005017;28;20105;-71
2021/03/05 11:48:50;;;;;;;16.75;11.55;;;6.10;99.90;;;;;;5004603;28;20085;-72
2021/03/05 11:51:17;;;;;;;21.60;11.93;;;6.20;99.90;;;;;;5005261;28;20448;-71
2021/03/05 11:53:43;;;;;;;20.27;12.32;;;6.30;99.90;;;;;;5001696;28;20071;-71
2021/03/05 11:56:09;;;;;;;20.23;12.63;;;6.40;99.90;;;;;;5004911;28;20022;-72
2021/03/05 11:58:35;;;;;;;15.45;11.25;;;6.40;99.90;;;;;;5001696;28;20033;-71
2021/03/05 12:01:02;;;;;;;17.10;11.60;;;6.50;99.90;;;;;;4994017;28;20035;-70
2021/03/05 12:03:28;;;;;;;18.90;11.85;;;6.50;99.90;;;;;;4992164;28;20031;-71
2021/03/05 12:05:54;;;;;;;16.38;10.57;;;6.60;99.90;;;;;;4993090;28;20549;-70
2021/03/05 12:08:21;;;;;;;16.67;11.07;;;6.70;99.90;;;;;;4994050;28;20026;-71
2021/03/05 12:10:47;;;;;;;16.65;10.60;;;6.80;99.90;;;;;;4993661;28;20022;-72
2021/03/05 12:13:13;;;;;;;15.65;11.32;;;6.60;99.90;;;;;;4993359;28;20441;-73
2021/03/05 12:15:39;;;;;;;17.52;11.35;;;6.40;99.90;;;;;;4994082;28;20102;-75
2021/03/05 12:18:05;;;;;;;17.85;10.90;;;6.40;99.90;;;;;;4993949;28;20032;-73
2021/03/05 12:20:31;;;;;;;18.70;10.93;;;6.40;99.90;;;;;;5008997;28;20022;-73
2021/03/05 12:22:57;;;;;;;15.68;10.32;;;6.50;99.90;;;;;;4998550;28;20106;-75
2021/03/05 12:25:22;;;;;;;16.08;10.18;;;6.40;99.90;;;;;;5009717;28;20370;-74
2021/03/05 12:27:48;;;;;;;25.75;10.40;;;6.50;99.90;;;;;;5014675;28;20076;-73
2021/03/05 12:30:14;;;;;;;15.95;11.23;;;6.70;99.90;;;;;;5013749;28;20037;-73
2021/03/05 12:32:40;;;;;;;16.73;11.23;;;6.70;99.90;;;;;;5013834;28;20022;-74
2021/03/05 12:35:06;;;;;;;18.02;11.43;;;6.60;99.90;;;;;;5014566;28;20064;-73
2021/03/05 12:37:32;;;;;;;16.42;11.43;;;6.40;99.90;;;;;;5015436;28;20060;-75
2021/03/05 12:39:57;;;;;;;16.77;10.88;;;6.50;99.90;;;;;;5012511;28;20065;-73
2021/03/05 12:42:23;;;;;;;17.02;10.35;;;6.50;99.90;;;;;;5012658;28;20036;-74
2021/03/05 12:44:49;;;;;;;17.05;10.95;;;6.20;99.90;;;;;;5012079;28;20057;-73